sensor_id;sensor_type;location;lat;lon;timestamp;pressure;altitude;pressure_sealevel;temperature;humidity
46944;BME280;32678;43.852;25.952;2024-01-11T00:03:21;102568.28;;;-2.63;66.44
46944;BME280;32678;43.852;25.952;2024-01-11T00:08:18;102564.78;;;-2.65;66.43
46944;BME280;32678;43.852;25.952;2024-01-11T00:13:14;102554.66;;;-2.44;65.37
46944;BME280;32678;43.852;25.952;2024-01-11T00:18:12;102562.34;;;-2.62;66.55
46944;BME280;32678;43.852;25.952;2024-01-11T00:23:08;102554.06;;;-2.39;66.99
46944;BME280;32678;43.852;25.952;2024-01-11T00:28:05;102549.66;;;-2.24;67.26
46944;BME280;32678;43.852;25.952;2024-01-11T00:33:02;102550.78;;;-2.19;67.40
46944;BME280;32678;43.852;25.952;2024-01-11T00:37:59;102536.69;;;-2.62;68.56
46944;BME280;32678;43.852;25.952;2024-01-11T00:42:56;102541.59;;;-2.67;68.98
46944;BME280;32678;43.852;25.952;2024-01-11T00:47:53;102530.88;;;-2.76;69.10
46944;BME280;32678;43.852;25.952;2024-01-11T00:52:49;102530.78;;;-2.95;70.15
46944;BME280;32678;43.852;25.952;2024-01-11T00:57:46;102523.03;;;-2.79;69.23
46944;BME280;32678;43.852;25.952;2024-01-11T01:02:43;102516.19;;;-2.96;70.10
46944;BME280;32678;43.852;25.952;2024-01-11T01:07:40;102515.22;;;-2.98;70.92
46944;BME280;32678;43.852;25.952;2024-01-11T01:12:36;102512.28;;;-2.88;70.22
46944;BME280;32678;43.852;25.952;2024-01-11T01:17:34;102507.72;;;-3.11;71.33
46944;BME280;32678;43.852;25.952;2024-01-11T01:22:30;102498.56;;;-3.06;71.97
46944;BME280;32678;43.852;25.952;2024-01-11T01:27:27;102491.50;;;-2.94;71.03
46944;BME280;32678;43.852;25.952;2024-01-11T01:32:24;102486.25;;;-3.13;71.69
46944;BME280;32678;43.852;25.952;2024-01-11T01:37:21;102483.91;;;-3.09;72.43
46944;BME280;32678;43.852;25.952;2024-01-11T01:42:17;102476.97;;;-2.93;71.06
46944;BME280;32678;43.852;25.952;2024-01-11T01:47:14;102471.31;;;-2.86;70.86
46944;BME280;32678;43.852;25.952;2024-01-11T01:52:11;102466.91;;;-2.71;70.77
46944;BME280;32678;43.852;25.952;2024-01-11T01:57:11;102465.81;;;-2.94;70.95
46944;BME280;32678;43.852;25.952;2024-01-11T02:02:08;102460.59;;;-2.95;70.69
46944;BME280;32678;43.852;25.952;2024-01-11T02:07:04;102445.34;;;-2.92;71.00
46944;BME280;32678;43.852;25.952;2024-01-11T02:12:02;102444.47;;;-2.75;70.80
46944;BME280;32678;43.852;25.952;2024-01-11T02:17:01;102435.63;;;-2.64;70.03
46944;BME280;32678;43.852;25.952;2024-01-11T02:21:59;102413.00;;;-2.71;68.96
46944;BME280;32678;43.852;25.952;2024-01-11T02:27:00;102417.84;;;-2.77;69.23
46944;BME280;32678;43.852;25.952;2024-01-11T02:31:58;102413.69;;;-2.75;70.88
46944;BME280;32678;43.852;25.952;2024-01-11T02:36:55;102407.75;;;-2.74;70.62
46944;BME280;32678;43.852;25.952;2024-01-11T02:41:53;102402.16;;;-2.83;71.61
46944;BME280;32678;43.852;25.952;2024-01-11T02:46:50;102390.28;;;-2.81;70.97
46944;BME280;32678;43.852;25.952;2024-01-11T02:51:46;102391.19;;;-2.98;70.42
46944;BME280;32678;43.852;25.952;2024-01-11T02:56:43;102381.84;;;-2.96;70.65
46944;BME280;32678;43.852;25.952;2024-01-11T03:01:40;102383.34;;;-2.84;69.90
46944;BME280;32678;43.852;25.952;2024-01-11T03:06:37;102372.47;;;-2.96;70.33
46944;BME280;32678;43.852;25.952;2024-01-11T03:11:34;102377.75;;;-2.75;70.20
46944;BME280;32678;43.852;25.952;2024-01-11T03:16:31;102371.25;;;-3.04;70.99
46944;BME280;32678;43.852;25.952;2024-01-11T03:21:27;102366.69;;;-3.10;70.04
46944;BME280;32678;43.852;25.952;2024-01-11T03:26:24;102356.50;;;-2.90;69.47
46944;BME280;32678;43.852;25.952;2024-01-11T03:31:21;102357.16;;;-2.94;70.16
46944;BME280;32678;43.852;25.952;2024-01-11T03:36:18;102355.25;;;-2.98;71.50
46944;BME280;32678;43.852;25.952;2024-01-11T03:41:14;102345.03;;;-2.97;72.64
46944;BME280;32678;43.852;25.952;2024-01-11T03:46:11;102340.41;;;-2.86;72.41
46944;BME280;32678;43.852;25.952;2024-01-11T03:51:08;102324.94;;;-2.88;73.09
46944;BME280;32678;43.852;25.952;2024-01-11T03:56:05;102319.13;;;-3.03;73.28
46944;BME280;32678;43.852;25.952;2024-01-11T04:01:02;102310.38;;;-3.07;73.65
46944;BME280;32678;43.852;25.952;2024-01-11T04:05:59;102299.78;;;-3.14;74.29
46944;BME280;32678;43.852;25.952;2024-01-11T04:10:56;102288.59;;;-2.97;74.27
46944;BME280;32678;43.852;25.952;2024-01-11T04:15:53;102294.78;;;-2.93;74.29
46944;BME280;32678;43.852;25.952;2024-01-11T04:20:49;102284.72;;;-2.70;73.91
46944;BME280;32678;43.852;25.952;2024-01-11T04:25:47;102290.84;;;-2.85;73.52
46944;BME280;32678;43.852;25.952;2024-01-11T04:30:43;102289.22;;;-2.83;73.62
46944;BME280;32678;43.852;25.952;2024-01-11T04:35:40;102283.16;;;-2.85;72.93
46944;BME280;32678;43.852;25.952;2024-01-11T04:40:37;102278.91;;;-2.85;73.45
46944;BME280;32678;43.852;25.952;2024-01-11T04:45:34;102280.59;;;-2.85;73.81
46944;BME280;32678;43.852;25.952;2024-01-11T04:50:30;102277.00;;;-2.89;72.55
46944;BME280;32678;43.852;25.952;2024-01-11T04:55:27;102271.34;;;-2.82;71.17
46944;BME280;32678;43.852;25.952;2024-01-11T05:00:23;102276.25;;;-2.86;70.96
46944;BME280;32678;43.852;25.952;2024-01-11T05:05:21;102278.00;;;-3.04;71.99
46944;BME280;32678;43.852;25.952;2024-01-11T05:10:17;102274.06;;;-3.51;73.51
46944;BME280;32678;43.852;25.952;2024-01-11T05:15:15;102276.47;;;-3.54;73.84
46944;BME280;32678;43.852;25.952;2024-01-11T05:20:11;102277.94;;;-3.41;73.07
46944;BME280;32678;43.852;25.952;2024-01-11T05:25:09;102279.78;;;-3.39;72.65
46944;BME280;32678;43.852;25.952;2024-01-11T05:30:07;102279.03;;;-3.54;73.34
46944;BME280;32678;43.852;25.952;2024-01-11T05:35:04;102266.22;;;-3.19;72.91
46944;BME280;32678;43.852;25.952;2024-01-11T05:40:00;102261.28;;;-3.14;72.72
46944;BME280;32678;43.852;25.952;2024-01-11T05:44:58;102267.97;;;-3.18;73.36
46944;BME280;32678;43.852;25.952;2024-01-11T05:49:55;102249.34;;;-3.14;72.60
46944;BME280;32678;43.852;25.952;2024-01-11T05:54:51;102257.25;;;-3.27;72.92
46944;BME280;32678;43.852;25.952;2024-01-11T05:59:48;102246.41;;;-3.21;73.20
46944;BME280;32678;43.852;25.952;2024-01-11T06:04:46;102247.16;;;-3.24;73.48
46944;BME280;32678;43.852;25.952;2024-01-11T06:09:44;102255.38;;;-3.31;74.00
46944;BME280;32678;43.852;25.952;2024-01-11T06:14:41;102248.44;;;-3.33;73.90
46944;BME280;32678;43.852;25.952;2024-01-11T06:19:38;102262.78;;;-3.55;74.88
46944;BME280;32678;43.852;25.952;2024-01-11T06:24:35;102246.72;;;-3.51;74.17
46944;BME280;32678;43.852;25.952;2024-01-11T06:29:32;102263.09;;;-3.48;73.79
46944;BME280;32678;43.852;25.952;2024-01-11T06:34:28;102257.31;;;-3.62;73.20
46944;BME280;32678;43.852;25.952;2024-01-11T06:39:25;102262.56;;;-3.77;73.86
46944;BME280;32678;43.852;25.952;2024-01-11T06:44:23;102266.28;;;-3.70;74.14
46944;BME280;32678;43.852;25.952;2024-01-11T06:49:19;102254.88;;;-3.59;72.81
46944;BME280;32678;43.852;25.952;2024-01-11T06:54:16;102257.31;;;-3.62;73.27
46944;BME280;32678;43.852;25.952;2024-01-11T06:59:13;102255.00;;;-3.56;73.35
46944;BME280;32678;43.852;25.952;2024-01-11T07:04:10;102253.91;;;-3.79;73.53
46944;BME280;32678;43.852;25.952;2024-01-11T07:09:07;102255.97;;;-3.54;73.13
46944;BME280;32678;43.852;25.952;2024-01-11T07:14:04;102251.22;;;-3.64;73.22
46944;BME280;32678;43.852;25.952;2024-01-11T07:19:00;102252.31;;;-3.59;74.08
46944;BME280;32678;43.852;25.952;2024-01-11T07:23:58;102256.69;;;-3.57;73.72
46944;BME280;32678;43.852;25.952;2024-01-11T07:28:55;102256.63;;;-3.40;74.31
46944;BME280;32678;43.852;25.952;2024-01-11T07:33:52;102252.28;;;-3.41;73.69
46944;BME280;32678;43.852;25.952;2024-01-11T07:38:49;102252.75;;;-3.50;74.76
46944;BME280;32678;43.852;25.952;2024-01-11T07:43:46;102241.75;;;-3.30;73.86
46944;BME280;32678;43.852;25.952;2024-01-11T07:48:50;102242.22;;;-2.82;72.48
46944;BME280;32678;43.852;25.952;2024-01-11T07:53:49;102232.56;;;-2.88;72.85
46944;BME280;32678;43.852;25.952;2024-01-11T07:58:50;102221.97;;;-2.76;72.44
46944;BME280;32678;43.852;25.952;2024-01-11T08:03:46;102208.72;;;-2.85;73.00
46944;BME280;32678;43.852;25.952;2024-01-11T08:08:43;102212.84;;;-2.70;72.81
46944;BME280;32678;43.852;25.952;2024-01-11T08:13:40;102171.78;;;-2.89;73.86
46944;BME280;32678;43.852;25.952;2024-01-11T08:18:38;102198.72;;;-2.60;73.00
46944;BME280;32678;43.852;25.952;2024-01-11T08:23:34;102189.34;;;-2.39;71.47
46944;BME280;32678;43.852;25.952;2024-01-11T08:28:31;102188.31;;;-2.23;71.29
46944;BME280;32678;43.852;25.952;2024-01-11T08:33:28;102176.84;;;-2.10;71.25
46944;BME280;32678;43.852;25.952;2024-01-11T08:38:26;102180.53;;;-2.04;70.89
46944;BME280;32678;43.852;25.952;2024-01-11T08:43:32;102173.25;;;-1.93;70.73
46944;BME280;32678;43.852;25.952;2024-01-11T08:48:28;102163.84;;;-1.72;71.21
46944;BME280;32678;43.852;25.952;2024-01-11T08:53:26;102154.38;;;-1.94;71.30
46944;BME280;32678;43.852;25.952;2024-01-11T08:58:23;102160.84;;;-1.83;70.62
46944;BME280;32678;43.852;25.952;2024-01-11T09:03:20;102148.09;;;-1.80;71.59
46944;BME280;32678;43.852;25.952;2024-01-11T09:08:16;102133.78;;;-1.51;71.46
46944;BME280;32678;43.852;25.952;2024-01-11T09:13:14;102128.53;;;-1.54;71.02
46944;BME280;32678;43.852;25.952;2024-01-11T09:18:11;102113.63;;;-1.16;71.14
46944;BME280;32678;43.852;25.952;2024-01-11T09:23:09;102106.13;;;-1.34;71.21
46944;BME280;32678;43.852;25.952;2024-01-11T09:28:05;102092.22;;;-1.39;72.03
46944;BME280;32678;43.852;25.952;2024-01-11T09:33:03;102077.97;;;-1.53;72.73
46944;BME280;32678;43.852;25.952;2024-01-11T09:38:00;102068.94;;;-0.95;70.35
46944;BME280;32678;43.852;25.952;2024-01-11T09:42:57;102053.47;;;-1.20;70.45
46944;BME280;32678;43.852;25.952;2024-01-11T09:47:54;102050.28;;;-0.88;68.62
46944;BME280;32678;43.852;25.952;2024-01-11T09:52:51;102039.13;;;-1.13;71.20
46944;BME280;32678;43.852;25.952;2024-01-11T09:57:48;102032.25;;;-0.89;71.06
46944;BME280;32678;43.852;25.952;2024-01-11T10:02:49;102032.31;;;-0.61;69.63
46944;BME280;32678;43.852;25.952;2024-01-11T10:07:45;102009.44;;;-0.52;69.57
46944;BME280;32678;43.852;25.952;2024-01-11T10:18:11;101981.78;;;-0.29;66.49
46944;BME280;32678;43.852;25.952;2024-01-11T10:23:08;101990.53;;;-0.25;67.91
46944;BME280;32678;43.852;25.952;2024-01-11T10:28:06;101974.66;;;-0.11;67.58
46944;BME280;32678;43.852;25.952;2024-01-11T10:33:09;101963.59;;;-0.35;67.52
46944;BME280;32678;43.852;25.952;2024-01-11T10:38:17;101955.41;;;-0.22;67.26
46944;BME280;32678;43.852;25.952;2024-01-11T10:43:14;101944.88;;;0.00;66.96
46944;BME280;32678;43.852;25.952;2024-01-11T10:48:16;101930.94;;;0.24;65.71
46944;BME280;32678;43.852;25.952;2024-01-11T10:53:20;101928.72;;;0.06;65.99
46944;BME280;32678;43.852;25.952;2024-01-11T10:58:22;101908.81;;;0.02;64.54
46944;BME280;32678;43.852;25.952;2024-01-11T11:03:23;101902.00;;;0.35;65.62
46944;BME280;32678;43.852;25.952;2024-01-11T11:08:20;101880.63;;;0.39;63.01
46944;BME280;32678;43.852;25.952;2024-01-11T11:13:19;101873.97;;;0.16;64.04
46944;BME280;32678;43.852;25.952;2024-01-11T11:18:15;101866.25;;;0.16;65.20
46944;BME280;32678;43.852;25.952;2024-01-11T11:23:14;101848.47;;;0.60;64.43
46944;BME280;32678;43.852;25.952;2024-01-11T11:28:13;101844.88;;;0.55;65.82
46944;BME280;32678;43.852;25.952;2024-01-11T11:33:11;101844.81;;;0.86;64.15
46944;BME280;32678;43.852;25.952;2024-01-11T11:38:17;101829.50;;;0.59;63.30
46944;BME280;32678;43.852;25.952;2024-01-11T11:43:18;101836.59;;;0.66;63.25
46944;BME280;32678;43.852;25.952;2024-01-11T11:53:34;101799.47;;;0.61;63.61
46944;BME280;32678;43.852;25.952;2024-01-11T11:58:32;101794.41;;;0.66;63.53
46944;BME280;32678;43.852;25.952;2024-01-11T12:03:29;101781.94;;;0.84;62.56
46944;BME280;32678;43.852;25.952;2024-01-11T12:08:26;101770.28;;;1.03;61.74
46944;BME280;32678;43.852;25.952;2024-01-11T12:13:24;101759.34;;;1.13;61.60
46944;BME280;32678;43.852;25.952;2024-01-11T12:18:20;101750.66;;;1.09;63.01
46944;BME280;32678;43.852;25.952;2024-01-11T12:23:18;101739.97;;;0.93;60.87
46944;BME280;32678;43.852;25.952;2024-01-11T12:28:14;101737.81;;;0.73;62.27
46944;BME280;32678;43.852;25.952;2024-01-11T12:33:12;101729.13;;;0.68;63.46
46944;BME280;32678;43.852;25.952;2024-01-11T12:38:09;101719.72;;;0.72;63.92
46944;BME280;32678;43.852;25.952;2024-01-11T12:43:06;101716.41;;;0.77;65.42
46944;BME280;32678;43.852;25.952;2024-01-11T12:48:06;101709.06;;;0.96;64.29
46944;BME280;32678;43.852;25.952;2024-01-11T12:53:08;101700.56;;;1.03;64.05
46944;BME280;32678;43.852;25.952;2024-01-11T12:58:05;101693.50;;;0.93;64.08
46944;BME280;32678;43.852;25.952;2024-01-11T13:03:03;101678.94;;;0.96;61.70
46944;BME280;32678;43.852;25.952;2024-01-11T13:08:01;101671.38;;;1.05;61.58
46944;BME280;32678;43.852;25.952;2024-01-11T13:12:59;101665.34;;;1.05;62.04
46944;BME280;32678;43.852;25.952;2024-01-11T13:18:05;101664.53;;;1.07;62.77
46944;BME280;32678;43.852;25.952;2024-01-11T13:23:11;101654.28;;;1.10;63.13
46944;BME280;32678;43.852;25.952;2024-01-11T13:28:10;101658.69;;;1.16;62.25
46944;BME280;32678;43.852;25.952;2024-01-11T13:33:08;101655.91;;;1.50;61.95
46944;BME280;32678;43.852;25.952;2024-01-11T13:38:05;101639.22;;;1.35;62.67
46944;BME280;32678;43.852;25.952;2024-01-11T13:43:01;101636.00;;;1.46;63.57
46944;BME280;32678;43.852;25.952;2024-01-11T13:47:59;101629.97;;;1.46;63.90
46944;BME280;32678;43.852;25.952;2024-01-11T13:52:56;101606.72;;;1.46;63.52
46944;BME280;32678;43.852;25.952;2024-01-11T13:57:53;101606.34;;;1.74;62.48
46944;BME280;32678;43.852;25.952;2024-01-11T14:02:49;101593.13;;;1.57;62.65
46944;BME280;32678;43.852;25.952;2024-01-11T14:07:47;101593.44;;;1.77;59.94
46944;BME280;32678;43.852;25.952;2024-01-11T14:12:45;101598.28;;;1.56;58.79
46944;BME280;32678;43.852;25.952;2024-01-11T14:17:41;101587.91;;;1.54;59.60
46944;BME280;32678;43.852;25.952;2024-01-11T14:22:39;101570.81;;;1.61;58.26
46944;BME280;32678;43.852;25.952;2024-01-11T14:27:37;101563.75;;;1.52;57.06
46944;BME280;32678;43.852;25.952;2024-01-11T14:32:34;101561.72;;;1.35;59.16
46944;BME280;32678;43.852;25.952;2024-01-11T14:37:33;101560.84;;;1.34;58.83
46944;BME280;32678;43.852;25.952;2024-01-11T14:42:31;101548.78;;;1.32;58.54
46944;BME280;32678;43.852;25.952;2024-01-11T14:47:28;101548.44;;;1.13;59.35
46944;BME280;32678;43.852;25.952;2024-01-11T14:52:25;101546.59;;;1.06;58.74
46944;BME280;32678;43.852;25.952;2024-01-11T14:57:22;101545.09;;;1.19;58.75
46944;BME280;32678;43.852;25.952;2024-01-11T15:02:19;101546.88;;;1.21;58.52
46944;BME280;32678;43.852;25.952;2024-01-11T15:07:16;101539.06;;;0.72;60.83
46944;BME280;32678;43.852;25.952;2024-01-11T15:12:13;101542.34;;;0.65;61.69
46944;BME280;32678;43.852;25.952;2024-01-11T15:17:09;101541.94;;;0.87;60.53
46944;BME280;32678;43.852;25.952;2024-01-11T15:22:06;101528.00;;;0.79;60.76
46944;BME280;32678;43.852;25.952;2024-01-11T15:27:05;101546.31;;;0.49;62.69
46944;BME280;32678;43.852;25.952;2024-01-11T15:32:02;101531.88;;;0.59;62.20
46944;BME280;32678;43.852;25.952;2024-01-11T15:36:59;101532.91;;;0.25;63.93
46944;BME280;32678;43.852;25.952;2024-01-11T15:41:56;101528.56;;;0.63;61.99
46944;BME280;32678;43.852;25.952;2024-01-11T15:46:55;101522.22;;;0.47;62.51
46944;BME280;32678;43.852;25.952;2024-01-11T15:51:52;101524.53;;;0.33;62.68
46944;BME280;32678;43.852;25.952;2024-01-11T15:56:48;101503.06;;;0.36;63.34
46944;BME280;32678;43.852;25.952;2024-01-11T16:01:46;101504.28;;;0.53;63.51
46944;BME280;32678;43.852;25.952;2024-01-11T16:06:59;101508.31;;;0.39;65.23
46944;BME280;32678;43.852;25.952;2024-01-11T16:11:56;101507.22;;;0.29;66.73
46944;BME280;32678;43.852;25.952;2024-01-11T16:16:59;101491.09;;;0.39;66.25
46944;BME280;32678;43.852;25.952;2024-01-11T16:21:58;101482.28;;;-0.12;67.18
46944;BME280;32678;43.852;25.952;2024-01-11T16:26:55;101481.38;;;0.26;65.73
46944;BME280;32678;43.852;25.952;2024-01-11T16:31:52;101461.63;;;-0.14;66.58
46944;BME280;32678;43.852;25.952;2024-01-11T16:36:50;101457.47;;;-0.07;66.57
46944;BME280;32678;43.852;25.952;2024-01-11T16:41:47;101458.22;;;-0.13;66.56
46944;BME280;32678;43.852;25.952;2024-01-11T16:46:45;101461.03;;;-0.02;65.38
46944;BME280;32678;43.852;25.952;2024-01-11T16:51:42;101449.38;;;0.17;64.87
46944;BME280;32678;43.852;25.952;2024-01-11T16:56:41;101453.97;;;-0.11;64.35
46944;BME280;32678;43.852;25.952;2024-01-11T17:01:38;101450.31;;;-0.20;64.44
46944;BME280;32678;43.852;25.952;2024-01-11T17:06:35;101455.78;;;-0.46;65.13
46944;BME280;32678;43.852;25.952;2024-01-11T17:11:32;101445.06;;;-0.64;65.17
46944;BME280;32678;43.852;25.952;2024-01-11T17:16:31;101445.16;;;-0.58;64.66
46944;BME280;32678;43.852;25.952;2024-01-11T17:21:28;101439.13;;;-0.60;65.50
46944;BME280;32678;43.852;25.952;2024-01-11T17:26:25;101435.94;;;-0.50;65.12
46944;BME280;32678;43.852;25.952;2024-01-11T17:31:21;101423.25;;;-0.39;64.20
46944;BME280;32678;43.852;25.952;2024-01-11T17:36:18;101420.03;;;-0.30;64.43
46944;BME280;32678;43.852;25.952;2024-01-11T17:41:16;101406.34;;;-0.28;61.57
46944;BME280;32678;43.852;25.952;2024-01-11T17:46:13;101395.88;;;-0.35;62.36
46944;BME280;32678;43.852;25.952;2024-01-11T17:51:09;101395.00;;;-0.36;60.54
46944;BME280;32678;43.852;25.952;2024-01-11T17:56:07;101374.44;;;-0.34;60.04
46944;BME280;32678;43.852;25.952;2024-01-11T18:01:03;101373.25;;;-0.49;60.17
46944;BME280;32678;43.852;25.952;2024-01-11T18:06:04;101373.47;;;-0.39;59.54
46944;BME280;32678;43.852;25.952;2024-01-11T18:11:01;101372.84;;;-0.28;59.41
46944;BME280;32678;43.852;25.952;2024-01-11T18:15:57;101348.00;;;-0.26;59.73
46944;BME280;32678;43.852;25.952;2024-01-11T18:20:54;101356.41;;;-0.33;59.88
46944;BME280;32678;43.852;25.952;2024-01-11T18:25:52;101351.09;;;0.02;58.33
46944;BME280;32678;43.852;25.952;2024-01-11T18:30:49;101351.63;;;-0.16;58.89
46944;BME280;32678;43.852;25.952;2024-01-11T18:35:46;101332.97;;;-0.03;59.04
46944;BME280;32678;43.852;25.952;2024-01-11T18:40:42;101320.81;;;-0.09;58.99
46944;BME280;32678;43.852;25.952;2024-01-11T18:45:40;101323.44;;;-0.07;59.75
46944;BME280;32678;43.852;25.952;2024-01-11T18:50:36;101329.72;;;0.07;60.45
46944;BME280;32678;43.852;25.952;2024-01-11T18:55:33;101317.13;;;0.22;59.18
46944;BME280;32678;43.852;25.952;2024-01-11T19:00:30;101308.38;;;0.14;59.00
46944;BME280;32678;43.852;25.952;2024-01-11T19:05:27;101314.72;;;0.34;58.10
46944;BME280;32678;43.852;25.952;2024-01-11T19:10:24;101323.91;;;0.17;58.34
46944;BME280;32678;43.852;25.952;2024-01-11T19:15:22;101320.75;;;0.35;57.47
46944;BME280;32678;43.852;25.952;2024-01-11T19:20:19;101338.28;;;0.53;56.42
46944;BME280;32678;43.852;25.952;2024-01-11T19:25:17;101339.16;;;0.55;56.99
46944;BME280;32678;43.852;25.952;2024-01-11T19:30:13;101346.03;;;0.53;56.69
46944;BME280;32678;43.852;25.952;2024-01-11T19:35:10;101340.97;;;0.60;56.53
46944;BME280;32678;43.852;25.952;2024-01-11T19:40:07;101339.00;;;0.46;56.07
46944;BME280;32678;43.852;25.952;2024-01-11T19:45:05;101328.56;;;0.39;56.45
46944;BME280;32678;43.852;25.952;2024-01-11T19:50:02;101329.53;;;0.43;55.87
46944;BME280;32678;43.852;25.952;2024-01-11T19:54:59;101326.38;;;0.61;55.28
46944;BME280;32678;43.852;25.952;2024-01-11T19:59:56;101325.59;;;0.66;55.12
46944;BME280;32678;43.852;25.952;2024-01-11T20:04:53;101327.34;;;0.69;54.98
46944;BME280;32678;43.852;25.952;2024-01-11T20:09:51;101322.50;;;0.87;54.79
46944;BME280;32678;43.852;25.952;2024-01-11T20:14:47;101330.00;;;0.73;54.55
46944;BME280;32678;43.852;25.952;2024-01-11T20:19:46;101317.91;;;0.69;54.69
46944;BME280;32678;43.852;25.952;2024-01-11T20:24:47;101304.75;;;0.54;55.19
46944;BME280;32678;43.852;25.952;2024-01-11T20:29:46;101289.50;;;0.69;54.22
46944;BME280;32678;43.852;25.952;2024-01-11T20:34:42;101291.22;;;0.67;52.88
46944;BME280;32678;43.852;25.952;2024-01-11T20:39:39;101282.53;;;0.64;53.89
46944;BME280;32678;43.852;25.952;2024-01-11T20:44:37;101282.72;;;0.73;53.81
46944;BME280;32678;43.852;25.952;2024-01-11T20:49:34;101279.31;;;0.77;54.11
46944;BME280;32678;43.852;25.952;2024-01-11T20:54:31;101262.81;;;0.66;54.57
46944;BME280;32678;43.852;25.952;2024-01-11T20:59:28;101256.38;;;0.41;55.83
46944;BME280;32678;43.852;25.952;2024-01-11T21:04:25;101266.19;;;0.62;55.57
46944;BME280;32678;43.852;25.952;2024-01-11T21:09:22;101268.56;;;0.50;56.78
46944;BME280;32678;43.852;25.952;2024-01-11T21:14:19;101255.16;;;0.73;56.32
46944;BME280;32678;43.852;25.952;2024-01-11T21:19:15;101236.84;;;0.55;56.56
46944;BME280;32678;43.852;25.952;2024-01-11T21:24:13;101254.97;;;0.58;55.46
46944;BME280;32678;43.852;25.952;2024-01-11T21:29:10;101230.66;;;0.46;57.29
46944;BME280;32678;43.852;25.952;2024-01-11T21:34:07;101226.28;;;0.38;56.12
46944;BME280;32678;43.852;25.952;2024-01-11T21:39:03;101213.31;;;0.35;58.35
46944;BME280;32678;43.852;25.952;2024-01-11T21:44:01;101194.22;;;0.23;59.04
46944;BME280;32678;43.852;25.952;2024-01-11T21:48:58;101194.13;;;0.18;59.87
46944;BME280;32678;43.852;25.952;2024-01-11T21:53:56;101187.34;;;0.23;59.97
46944;BME280;32678;43.852;25.952;2024-01-11T21:58:54;101183.59;;;0.05;60.65
46944;BME280;32678;43.852;25.952;2024-01-11T22:03:51;101183.06;;;0.24;59.42
46944;BME280;32678;43.852;25.952;2024-01-11T22:08:48;101193.66;;;-0.09;63.63
46944;BME280;32678;43.852;25.952;2024-01-11T22:13:45;101190.41;;;0.01;62.23
46944;BME280;32678;43.852;25.952;2024-01-11T22:18:41;101191.88;;;-0.13;63.50
46944;BME280;32678;43.852;25.952;2024-01-11T22:23:39;101203.97;;;-0.11;63.69
46944;BME280;32678;43.852;25.952;2024-01-11T22:28:37;101205.59;;;-0.14;64.49
46944;BME280;32678;43.852;25.952;2024-01-11T22:33:33;101226.22;;;-0.14;64.52
46944;BME280;32678;43.852;25.952;2024-01-11T22:38:30;101226.59;;;-0.41;63.55
46944;BME280;32678;43.852;25.952;2024-01-11T22:43:27;101226.00;;;-0.71;63.07
46944;BME280;32678;43.852;25.952;2024-01-11T22:48:24;101228.09;;;-0.52;63.47
46944;BME280;32678;43.852;25.952;2024-01-11T22:53:20;101233.75;;;-0.70;63.77
46944;BME280;32678;43.852;25.952;2024-01-11T22:58:17;101224.66;;;-0.95;63.44
46944;BME280;32678;43.852;25.952;2024-01-11T23:03:14;101234.84;;;-1.38;65.03
46944;BME280;32678;43.852;25.952;2024-01-11T23:08:11;101220.41;;;-1.33;65.65
46944;BME280;32678;43.852;25.952;2024-01-11T23:13:08;101209.53;;;-1.20;65.36
46944;BME280;32678;43.852;25.952;2024-01-11T23:18:04;101197.72;;;-1.10;64.99
46944;BME280;32678;43.852;25.952;2024-01-11T23:23:02;101202.78;;;-1.15;64.92
46944;BME280;32678;43.852;25.952;2024-01-11T23:27:59;101197.59;;;-1.18;65.16
46944;BME280;32678;43.852;25.952;2024-01-11T23:32:56;101192.34;;;-1.22;64.77
46944;BME280;32678;43.852;25.952;2024-01-11T23:37:52;101191.81;;;-1.45;65.15
46944;BME280;32678;43.852;25.952;2024-01-11T23:42:50;101162.88;;;-1.35;65.42
46944;BME280;32678;43.852;25.952;2024-01-11T23:47:48;101200.25;;;-1.13;64.59
46944;BME280;32678;43.852;25.952;2024-01-11T23:52:44;101201.13;;;-1.52;64.72
46944;BME280;32678;43.852;25.952;2024-01-11T23:57:41;101201.97;;;-1.87;65.77
